Terminal Aerodrome Forecast
Issued by NWS

Home | Current Version | Previous Version | Text Only | Print | Product List | Glossary On
Versions: 1 2 3 4 5 6 7 8 9 10 11 12 13 14 15 16 17 18 19 20 21 22 23 24 25 26 27 28 29 30 31 32
000
FTUS41 KBOX 280525
TAFFMH
TAF
KFMH 280525Z 2806/2906 20008KT 4SM BR BKN004
     FM280900 18010KT 2SM -SHRA BR VCTS OVC003CB
     FM281300 18012KT 3SM -SHRA BR OVC008
     FM281700 20016KT P6SM BKN008
     FM282200 21016KT P6SM SCT008
     FM290300 23014G21KT P6SM SCT250=

USA.gov is the U.S. government's official web portal to all federal, state and local government web resources and services.